首页
METAR-TAF:

METAR-TAF

机场 :

山胡桃, 北卡罗来纳州, 美国

纬度: 35-44-32N, 经度: 081-22-56W, 海拔: 362米

当前天气观测

该预报发布于1小时和3分钟前的01:53 UTC
静风
温度 22°C
湿度 88%
气压 1021 hPa
能見度: 16.1公里
阴天层高于9500英尺

METAR: KHKY 170153Z AUTO 00000KT 10SM OVC095 22/20 A3015 RMK AO2 SLP190 T02170200

时间: 22:56 (02:56 UTC)

预报

该预报发布于3小时和17分钟前的23:39 UTC
预报有效从17日的 00点(UTC)到 17日的 24点(UTC)
风速2节,风向多变
能見度: 10公里
散云层高于8000英尺
从 17日的 0700点(UTC)
风速节,风向
能見度: 8.0公里
散云层高于800英尺
散云层高于7000英尺
轻雾
从 17日的 1400点(UTC)
风速4节,风向东北
能見度: 10公里
散云层高于1700英尺
多云层高于2500英尺
从 17日的 1800点(UTC)
风速5节,风向东北
能見度: 10公里
多云层高于3500英尺
几率 30%
从 17日的 18点(UTC)到 17日的 22点(UTC)
能見度: 6.4公里
阴天层高于2500英尺
小阵雨, 轻雾

TAF: KHKY 162339Z 1700/1724 VRB02KT P6SM SCT080 FM170700 00000KT 5SM BR SCT008 SCT070 FM171400 05004KT P6SM SCT017 BKN025 FM171800 04005KT P6SM BKN035 PROB30 1718/1722 4SM -SHRA BR OVC025

超过4000个机场的气象观测和天气预报(METAR&TAF报告)。

可查询的气象台以黄色和红色小点在地图上表示。

将鼠标移到小点上方,可查看气象台名称。

然后点击查看天气观测和预报。

如需切换地图:点击带黑十字的绿色按钮放大地图;点击带横线的绿色按钮缩小地图;或者点击绿色箭头查看邻近地区的地图。


METAR-TAF: